createdAt,value
2019-01-14T00:00:26.919Z,3.80
2019-01-14T00:05:34.633Z,3.80
2019-01-14T00:10:39.879Z,3.80
2019-01-14T00:15:45.325Z,3.80
2019-01-14T00:20:50.057Z,3.80
2019-01-14T00:25:55.823Z,3.80
2019-01-14T00:31:01.744Z,3.80
2019-01-14T00:36:08.070Z,3.90
2019-01-14T00:41:13.324Z,3.90
2019-01-14T00:46:18.661Z,3.90
2019-01-14T00:51:24.271Z,3.90
2019-01-14T00:56:30.057Z,4.00
2019-01-14T01:01:35.377Z,4.00
2019-01-14T01:06:40.784Z,3.90
2019-01-14T01:11:46.388Z,3.70
2019-01-14T01:16:52.853Z,2.90
2019-01-14T01:21:59.055Z,2.50
2019-01-14T01:27:05.315Z,2.50
2019-01-14T01:32:11.491Z,2.50
2019-01-14T01:37:18.771Z,2.50
2019-01-14T01:42:37.452Z,2.60
2019-01-14T01:47:57.919Z,2.70
2019-01-14T01:53:04.245Z,2.70
2019-01-14T01:58:10.361Z,2.70
2019-01-14T02:03:35.888Z,2.70
2019-01-14T02:08:41.231Z,2.60
2019-01-14T02:14:08.951Z,2.60
2019-01-14T02:19:15.239Z,2.70
2019-01-14T02:24:42.785Z,2.70
2019-01-14T02:29:48.095Z,2.70
2019-01-14T02:34:53.447Z,2.80
2019-01-14T02:39:58.754Z,2.80
2019-01-14T02:45:05.708Z,2.70
2019-01-14T02:50:12.167Z,2.80
2019-01-14T02:55:18.300Z,2.70
2019-01-14T03:00:26.135Z,2.70
2019-01-14T03:05:31.420Z,2.80
2019-01-14T03:10:36.761Z,2.70
2019-01-14T03:15:42.038Z,2.80
2019-01-14T03:20:47.390Z,2.80
2019-01-14T03:25:58.370Z,2.80
2019-01-14T03:31:01.321Z,2.80
2019-01-14T03:36:10.432Z,2.80
2019-01-14T03:41:18.881Z,2.60
2019-01-14T03:46:24.363Z,2.60
2019-01-14T03:51:31.163Z,2.50
2019-01-14T03:56:37.554Z,2.40
2019-01-14T04:01:42.842Z,2.30
2019-01-14T04:06:50.595Z,2.30
2019-01-14T04:11:56.772Z,2.20
2019-01-14T04:17:03.353Z,2.30
2019-01-14T04:22:10.004Z,2.30
2019-01-14T04:27:16.100Z,2.30
2019-01-14T04:32:21.871Z,2.20
2019-01-14T04:37:27.014Z,2.00
2019-01-14T04:42:33.623Z,1.80
2019-01-14T04:47:39.057Z,1.70
2019-01-14T04:52:44.831Z,1.60
2019-01-14T04:57:50.736Z,1.50
2019-01-14T05:02:56.469Z,1.40
2019-01-14T05:08:02.077Z,1.40
2019-01-14T05:13:07.877Z,1.50
2019-01-14T05:18:14.053Z,1.50
2019-01-14T05:23:19.329Z,1.40
2019-01-14T05:28:24.433Z,1.30
2019-01-14T05:33:30.451Z,1.20
2019-01-14T05:38:36.299Z,1.20
2019-01-14T05:43:43.171Z,1.00
2019-01-14T05:48:49.342Z,1.00
2019-01-14T05:53:55.411Z,0.90
2019-01-14T05:59:00.531Z,0.90
2019-01-14T06:04:18.280Z,0.90
2019-01-14T06:09:24.234Z,1.00
2019-01-14T06:14:29.289Z,1.00
2019-01-14T06:19:36.389Z,1.00
2019-01-14T06:24:41.389Z,1.00
2019-01-14T06:29:46.461Z,1.00
2019-01-14T06:34:52.606Z,1.00
2019-01-14T06:40:00.179Z,0.90
2019-01-14T06:45:07.408Z,1.00
2019-01-14T06:50:14.781Z,0.90
2019-01-14T06:55:20.138Z,1.00
2019-01-14T07:00:39.132Z,1.10
2019-01-14T07:05:44.619Z,1.10
2019-01-14T07:10:52.139Z,1.10
2019-01-14T07:15:59.693Z,1.20
2019-01-14T07:21:05.718Z,1.20
2019-01-14T07:26:11.692Z,1.20
2019-01-14T07:31:17.320Z,1.30
2019-01-14T07:36:23.564Z,1.30
2019-01-14T07:41:29.735Z,1.30
2019-01-14T07:46:37.411Z,1.30
2019-01-14T07:51:44.153Z,1.30
2019-01-14T07:56:50.524Z,1.20
2019-01-14T08:01:56.735Z,1.30
2019-01-14T08:07:03.213Z,1.30
2019-01-14T08:12:09.541Z,1.40
2019-01-14T08:17:15.905Z,1.40
2019-01-14T08:22:22.641Z,1.40
2019-01-14T08:27:29.065Z,1.30
2019-01-14T08:32:35.950Z,1.30
2019-01-14T08:37:41.156Z,1.30
2019-01-14T08:42:46.493Z,1.30
2019-01-14T08:47:52.842Z,1.20
2019-01-14T08:53:00.173Z,1.30
2019-01-14T08:58:06.372Z,1.30
2019-01-14T09:08:16.578Z,1.30
2019-01-14T09:13:23.698Z,1.20
2019-01-14T09:18:30.694Z,1.10
2019-01-14T09:23:36.530Z,0.60
2019-01-14T09:28:42.901Z,0.00
2019-01-14T09:33:49.233Z,-0.40
2019-01-14T09:38:55.957Z,-0.50
2019-01-14T09:44:03.868Z,-0.70
2019-01-14T09:49:10.305Z,-0.60
2019-01-14T09:54:16.479Z,-0.40
2019-01-14T09:59:22.586Z,-0.40
2019-01-14T10:04:28.939Z,-0.40
2019-01-14T10:09:34.916Z,-0.10
2019-01-14T10:14:40.115Z,0.20
2019-01-14T10:19:45.391Z,0.30
2019-01-14T10:29:54.168Z,0.30
2019-01-14T10:35:01.073Z,0.40
2019-01-14T10:40:17.485Z,0.40
2019-01-14T10:45:25.211Z,0.40
2019-01-14T10:50:31.663Z,0.40
2019-01-14T10:55:37.403Z,0.40
2019-01-14T11:00:42.699Z,0.50
2019-01-14T11:05:48.255Z,0.40
2019-01-14T11:10:54.466Z,0.30
2019-01-14T11:16:02.343Z,0.40
2019-01-14T11:21:08.841Z,0.50
2019-01-14T11:26:16.312Z,0.70
2019-01-14T11:31:22.195Z,1.00
2019-01-14T11:36:28.168Z,1.10
2019-01-14T11:41:34.551Z,1.00
2019-01-14T11:46:43.211Z,1.10
2019-01-14T11:51:50.506Z,1.10
2019-01-14T11:56:56.664Z,1.00
2019-01-14T12:02:03.418Z,1.00
2019-01-14T12:07:09.642Z,1.10
2019-01-14T12:12:16.704Z,1.10
2019-01-14T12:17:23.691Z,1.20
2019-01-14T12:22:30.280Z,1.00
2019-01-14T12:27:35.476Z,0.90
2019-01-14T12:32:42.137Z,0.70
2019-01-14T12:37:47.436Z,0.70
2019-01-14T12:42:53.638Z,0.60
2019-01-14T12:48:00.436Z,0.70
2019-01-14T12:53:06.686Z,0.40
2019-01-14T12:58:12.086Z,0.10
2019-01-14T13:03:17.943Z,0.40
2019-01-14T13:08:24.193Z,0.40
2019-01-14T13:13:29.571Z,0.60
2019-01-14T13:18:36.919Z,0.70
2019-01-14T13:23:54.998Z,0.70
2019-01-14T13:29:00.753Z,0.80
2019-01-14T13:34:06.387Z,0.80
2019-01-14T13:39:13.603Z,0.90
2019-01-14T13:44:19.292Z,-0.40
2019-01-14T13:49:24.694Z,-0.60
2019-01-14T13:54:31.988Z,-0.50
2019-01-14T13:59:38.416Z,-0.40
2019-01-14T14:04:45.441Z,-0.10
2019-01-14T14:09:51.186Z,0.20
2019-01-14T14:14:56.487Z,0.30
2019-01-14T14:20:02.695Z,0.30
2019-01-14T14:25:10.210Z,0.40
2019-01-14T14:30:21.256Z,0.50
2019-01-14T14:35:26.605Z,0.50
2019-01-14T14:40:32.018Z,-0.40
2019-01-14T14:45:37.489Z,-0.70
2019-01-14T14:50:42.815Z,-1.00
2019-01-14T14:55:48.177Z,-1.30
2019-01-14T15:00:53.744Z,-1.60
2019-01-14T15:05:59.175Z,-1.80
2019-01-14T15:11:04.727Z,-2.00
2019-01-14T15:16:10.065Z,-1.90
2019-01-14T15:21:15.881Z,-1.90
2019-01-14T15:26:22.296Z,-1.80
2019-01-14T15:31:27.672Z,-1.80
2019-01-14T15:36:34.604Z,-1.70
2019-01-14T15:41:40.187Z,-1.70
2019-01-14T15:46:45.461Z,-1.70
2019-01-14T15:51:51.189Z,-1.60
2019-01-14T15:56:56.427Z,-1.60
2019-01-14T16:02:01.719Z,-1.50
2019-01-14T16:07:07.777Z,-1.40
2019-01-14T16:12:13.160Z,-1.50
2019-01-14T16:17:18.522Z,-1.40
2019-01-14T16:22:23.876Z,-1.50
2019-01-14T16:27:31.199Z,-1.60
2019-01-14T16:32:36.652Z,-1.70
2019-01-14T16:37:42.245Z,-1.70
2019-01-14T16:42:48.532Z,-1.80
2019-01-14T16:47:54.734Z,-1.80
2019-01-14T16:53:02.645Z,-1.80
2019-01-14T16:58:08.902Z,-1.80
2019-01-14T17:03:15.236Z,-1.80
2019-01-14T17:08:21.521Z,-1.80
2019-01-14T17:13:27.853Z,-1.80
2019-01-14T17:18:33.610Z,-1.90
2019-01-14T17:23:38.885Z,-1.90
2019-01-14T17:28:45.057Z,-1.90
2019-01-14T17:33:51.868Z,-1.90
2019-01-14T17:38:58.593Z,-1.90
2019-01-14T17:44:23.754Z,-1.90
2019-01-14T17:49:29.638Z,-1.90
2019-01-14T17:54:35.481Z,-1.90
2019-01-14T17:59:42.087Z,-1.90
2019-01-14T18:04:48.621Z,-1.90
2019-01-14T18:09:55.002Z,-1.90
2019-01-14T18:15:01.118Z,-1.80
2019-01-14T18:20:10.617Z,-1.90
2019-01-14T18:30:19.871Z,-1.90
2019-01-14T18:40:33.836Z,-1.90
2019-01-14T18:45:36.403Z,-1.90
2019-01-14T18:50:41.732Z,-1.90
2019-01-14T18:55:47.062Z,-1.90
2019-01-14T19:00:52.394Z,-1.80
2019-01-14T19:05:58.615Z,-1.80
2019-01-14T19:11:16.487Z,-1.60
2019-01-14T19:16:21.936Z,-1.50
2019-01-14T19:21:29.519Z,-1.50
2019-01-14T19:26:36.375Z,-1.40
2019-01-14T19:31:41.605Z,-1.30
2019-01-14T19:36:46.906Z,-1.30
2019-01-14T19:41:53.165Z,-1.20
2019-01-14T19:46:59.066Z,-1.20
2019-01-14T19:52:04.499Z,-1.20
2019-01-14T19:57:10.748Z,-1.20
2019-01-14T20:02:17.405Z,-1.20
2019-01-14T20:12:25.441Z,-1.30
2019-01-14T20:17:31.884Z,-1.30
2019-01-14T20:22:38.153Z,-1.20
2019-01-14T20:27:44.551Z,-1.20
2019-01-14T20:32:51.003Z,-1.10
2019-01-14T20:37:58.356Z,-1.20
2019-01-14T20:43:04.152Z,-1.10
2019-01-14T20:48:09.395Z,-1.00
2019-01-14T20:53:15.845Z,-1.10
2019-01-14T20:58:33.692Z,-1.00
2019-01-14T21:03:39.722Z,-1.00
2019-01-14T21:08:58.582Z,-1.00
2019-01-14T21:14:04.713Z,-1.00
2019-01-14T21:19:10.900Z,-1.00
2019-01-14T21:24:17.177Z,-1.10
2019-01-14T21:29:26.061Z,-1.00
2019-01-14T21:34:32.126Z,-1.00
2019-01-14T21:39:38.278Z,-1.00
2019-01-14T21:44:43.531Z,-1.00
2019-01-14T21:49:49.285Z,-1.00
2019-01-14T21:54:55.067Z,-1.00
2019-01-14T22:00:00.677Z,-0.90
2019-01-14T22:05:07.901Z,-0.90
2019-01-14T22:10:18.369Z,-0.90
2019-01-14T22:15:24.462Z,-0.90
2019-01-14T22:20:30.449Z,-0.80
2019-01-14T22:25:36.337Z,-0.90
2019-01-14T22:30:41.398Z,-0.80
2019-01-14T22:35:47.488Z,-0.80
2019-01-14T22:40:53.633Z,-0.80
2019-01-14T22:45:59.576Z,-0.70
2019-01-14T22:51:06.692Z,-0.70
2019-01-14T22:56:12.563Z,-0.70
2019-01-14T23:01:22.061Z,-0.60
2019-01-14T23:06:28.016Z,-0.70
2019-01-14T23:11:34.604Z,-0.70
2019-01-14T23:16:39.570Z,-0.60
2019-01-14T23:21:46.126Z,-0.60
2019-01-14T23:26:51.716Z,-0.60
2019-01-14T23:31:58.120Z,-0.60
2019-01-14T23:37:03.679Z,-0.60
2019-01-14T23:42:11.264Z,-0.60
2019-01-14T23:47:17.275Z,-0.50
2019-01-14T23:52:23.127Z,-0.50
2019-01-14T23:57:30.037Z,-0.50
